Aktuální počasí v Tlučné 

Teplota -3.4 °C
Minimální teplota -6.4 °C Maximální teplota -3.4 °C
Teplota rosného bodu -4.7 °C Pocitová teplota -3.4 °C
Tlak 1019.5 hPa
Směr a rychlost větru  0 m/s
» 2.1 m/s
vlhkost 90.5 %
Teplota 0.0  mm/h
SlunceUV0.62 dnes zítra
↑ 07:48 ↑ 07:49
↓ 16:07 ↓ 16:07
   
Měsíc dnes zítra
↑ 11:43 ↑ 12:15
↓ 21:59 ↓ 23:08
   
  LKLN Metar
  LKLN Metar
2016/11/29 11:00
LKLN 291100Z AUTO 19002KT CAVOK M01/M04 Q1034
Rychlost a směr větru 190°
3.7 km/h
--
10 km
32805.1 ft
--
Teplota -1 °C
Rosný bod -4°C
 
Tlak 1034 hPa
775.6 mmHg
 
  YR.no meteogram
  YR.no meteogram
Meteogram YR.no
  IN-Pocasi.cz
  IN-Pocasi.cz
In-Pocasi logo




  PocasiIdnes     CHMI     MeteoPress     Radar     Radar2  


  Valid XHTML 1.0 Transitional  


Provozni a servisni denik

Popis

ČKD / FAQ